Time;durP1;ratioP1;P1;durP2;ratioP2;P2;SDS_P1;SDS_P2;PMS_P1;PMS_P2;Temp;Humidity;BMP_temperature;BMP_pressure;BME280_temperature;BME280_humidity;BME280_pressure;Samples;Min_cycle;Max_cycle;Signal;HPM_P1;HPM_P2
2023/01/25 00:02:06;;;;;;;;;58.50;44.25;;;;;6.04;60.56;102976.59;4943083;28;45326;-46
2023/01/25 00:04:31;;;;;;;;;56.75;43.00;;;;;6.07;60.44;102985.44;4943114;28;45331;-48
2023/01/25 00:06:57;;;;;;;;;57.00;44.50;;;;;6.07;60.51;102985.44;4942920;28;45285;-48
2023/01/25 00:09:23;;;;;;;;;51.75;43.25;;;;;6.08;60.43;102982.00;4942739;28;45320;-48
2023/01/25 00:11:49;;;;;;;;;53.75;41.00;;;;;6.09;60.56;102989.03;4942451;28;46271;-47
2023/01/25 00:14:15;;;;;;;;;55.50;42.00;;;;;6.07;60.57;102976.75;4942754;28;45255;-45
2023/01/25 00:16:41;;;;;;;;;56.75;44.25;;;;;6.11;60.60;102981.25;4925544;28;45236;-47
2023/01/25 00:19:08;;;;;;;;;52.50;41.25;;;;;6.09;60.47;102980.28;4942842;28;45558;-47
2023/01/25 00:21:34;;;;;;;;;53.25;42.00;;;;;6.09;60.37;102981.19;4942724;28;46149;-49
2023/01/25 00:24:00;;;;;;;;;46.75;39.75;;;;;6.07;60.72;102969.78;4942675;28;45268;-45
2023/01/25 00:26:28;;;;;;;;;53.75;41.25;;;;;6.09;60.57;102975.97;4942382;28;45352;-47
2023/01/25 00:28:54;;;;;;;;;51.00;39.00;;;;;6.09;60.55;102972.44;4942704;28;45571;-46
2023/01/25 00:31:50;;;;;;;;;56.75;45.00;;;;;6.08;60.48;102965.47;4942499;28;45443;-48
2023/01/25 00:34:24;;;;;;;;;48.00;40.25;;;;;6.07;60.71;102967.19;4942773;28;45430;-46
2023/01/25 00:37:00;;;;;;;;;54.25;41.25;;;;;6.06;60.61;102964.50;4942647;28;45296;-47
2023/01/25 00:39:27;;;;;;;;;51.75;42.75;;;;;5.95;60.74;102953.59;4942646;28;45415;-48
2023/01/25 00:41:53;;;;;;;;;52.50;42.25;;;;;6.03;60.62;102970.50;4942005;28;45346;-48
2023/01/25 00:44:19;;;;;;;;;49.25;41.25;;;;;6.06;60.62;102972.34;4925194;28;45362;-46
2023/01/25 00:46:44;;;;;;;;;52.50;42.00;;;;;6.05;60.53;102967.94;4942559;28;45289;-47
2023/01/25 00:49:24;;;;;;;;;53.25;40.50;;;;;6.06;60.75;102972.34;4942368;28;45327;-49
2023/01/25 00:51:51;;;;;;;;;53.75;40.00;;;;;6.05;60.65;102965.34;4942387;28;45318;-45
2023/01/25 00:54:17;;;;;;;;;57.50;41.50;;;;;6.05;60.70;102966.25;4942288;28;45284;-47
2023/01/25 00:56:43;;;;;;;;;54.50;42.00;;;;;6.04;60.57;102961.84;4942141;28;45446;-46
2023/01/25 00:59:13;;;;;;;;;55.50;44.00;;;;;6.05;60.79;102960.13;4942177;28;45178;-47
2023/01/25 01:01:40;;;;;;;;;49.50;39.50;;;;;6.07;60.55;102964.56;4941986;28;46399;-46
2023/01/25 01:04:06;;;;;;;;;53.50;39.75;;;;;6.07;60.62;102956.72;4941980;28;45385;-49
2023/01/25 01:06:34;;;;;;;;;54.75;41.75;;;;;6.08;60.54;102961.13;4942170;28;45232;-47
2023/01/25 01:08:59;;;;;;;;;55.00;43.75;;;;;6.08;60.68;102963.75;4941744;28;45400;-46
2023/01/25 01:11:24;;;;;;;;;55.25;40.75;;;;;6.08;60.57;102963.75;4941708;28;46045;-46
2023/01/25 01:13:49;;;;;;;;;44.50;38.00;;;;;6.09;60.52;102964.63;4941835;28;45153;-50
2023/01/25 01:16:15;;;;;;;;;54.25;42.00;;;;;6.08;60.59;102960.25;4942131;28;45495;-51
2023/01/25 01:18:42;;;;;;;;;59.25;44.25;;;;;6.09;60.56;102962.00;4941918;28;45475;-49
2023/01/25 01:21:09;;;;;;;;;50.75;41.00;;;;;6.09;60.67;102955.09;4941794;28;45979;-45
2023/01/25 01:23:35;;;;;;;;;49.50;41.00;;;;;6.09;60.61;102957.69;4941600;28;45304;-47
2023/01/25 01:26:07;;;;;;;;;58.25;41.50;;;;;6.09;60.66;102947.25;4921659;28;45291;-46
2023/01/25 01:28:34;;;;;;;;;45.50;38.75;;;;;6.11;60.58;102956.03;4936993;28;45462;-46
2023/01/25 01:31:20;;;;;;;;;53.50;41.25;;;;;6.03;60.65;102939.19;4937630;28;46726;-47
2023/01/25 01:33:53;;;;;;;;;53.00;40.00;;;;;6.13;60.64;102962.19;4935520;28;45611;-49
2023/01/25 01:36:21;;;;;;;;;43.50;37.00;;;;;6.12;60.65;102957.81;4936173;28;45555;-46
2023/01/25 01:38:47;;;;;;;;;57.25;42.75;;;;;6.11;60.44;102955.13;4937429;28;45509;-46
2023/01/25 01:41:14;;;;;;;;;49.75;39.00;;;;;6.12;60.79;102960.41;4936494;28;46379;-48
2023/01/25 01:43:39;;;;;;;;;47.00;38.75;;;;;6.10;60.63;102953.34;4936953;28;45189;-47
2023/01/25 01:46:21;;;;;;;;;50.00;40.25;;;;;6.10;60.63;102959.47;4936617;28;45383;-47
2023/01/25 01:48:59;;;;;;;;;55.50;42.00;;;;;6.09;60.79;102957.69;4937254;28;45786;-47
2023/01/25 01:51:46;;;;;;;;;52.25;41.00;;;;;6.09;60.82;102954.19;4936916;28;45180;-47
2023/01/25 01:54:19;;;;;;;;;45.25;35.75;;;;;6.07;60.63;102963.69;4936582;28;45671;-49
2023/01/25 01:56:59;;;;;;;;;55.75;42.75;;;;;6.07;60.67;102967.19;4938509;28;45705;-50
2023/01/25 01:59:30;;;;;;;;;55.50;42.00;;;;;6.09;60.52;102964.63;4940584;28;45333;-49
2023/01/25 02:01:56;;;;;;;;;53.00;41.00;;;;;6.06;60.82;102962.78;4939757;28;46418;-46
2023/01/25 02:04:24;;;;;;;;;52.75;40.00;;;;;6.07;60.69;102967.19;4941196;28;45418;-46
2023/01/25 02:07:15;;;;;;;;;47.50;41.00;;;;;6.06;60.73;102965.38;4940024;28;45727;-49
2023/01/25 02:09:40;;;;;;;;;47.75;38.75;;;;;6.03;60.83;102962.66;4933638;28;45408;-47
2023/01/25 02:12:08;;;;;;;;;60.25;42.00;;;;;6.03;60.80;102967.88;4940515;28;46110;-49
2023/01/25 02:14:33;;;;;;;;;56.50;43.75;;;;;6.04;60.72;102964.47;4941416;28;45406;-48
2023/01/25 02:16:59;;;;;;;;;55.75;41.50;;;;;6.04;60.66;102976.59;4941279;28;45302;-46
2023/01/25 02:19:54;;;;;;;;;59.00;45.25;;;;;6.01;60.66;102980.88;4918721;28;45923;-46
2023/01/25 02:22:29;;;;;;;;;55.00;43.25;;;;;5.99;60.73;102964.25;4941160;28;45936;-46
2023/01/25 02:25:04;;;;;;;;;52.00;42.00;;;;;6.01;60.66;102966.94;4940529;28;45347;-48
2023/01/25 02:27:30;;;;;;;;;61.50;45.25;;;;;6.02;60.68;102963.50;4940380;28;45434;-47
2023/01/25 02:29:56;;;;;;;;;58.25;42.75;;;;;6.01;60.82;102970.44;4940467;28;45494;-47
2023/01/25 02:32:21;;;;;;;;;57.25;43.50;;;;;6.02;60.70;102976.53;4940576;28;46135;-50
2023/01/25 02:34:47;;;;;;;;;53.75;43.00;;;;;6.01;60.51;102977.38;4941197;28;45430;-48
2023/01/25 02:37:13;;;;;;;;;54.50;42.25;;;;;6.01;60.83;102977.38;4940463;28;45694;-50
2023/01/25 02:39:40;;;;;;;;;56.25;46.25;;;;;5.99;60.74;102971.22;4940545;28;45747;-46
2023/01/25 02:42:05;;;;;;;;;59.50;45.50;;;;;5.99;60.78;102966.88;4940124;28;46500;-46
2023/01/25 02:44:31;;;;;;;;;51.75;42.00;;;;;5.99;60.81;102979.03;4939692;28;45955;-46
2023/01/25 02:46:57;;;;;;;;;57.00;45.00;;;;;5.99;60.86;102981.66;4940229;28;45489;-46
2023/01/25 02:49:22;;;;;;;;;55.00;42.75;;;;;6.00;60.62;102970.41;4940407;28;45427;-49
2023/01/25 02:51:50;;;;;;;;;56.00;43.75;;;;;6.00;60.60;102971.28;4940818;28;46100;-47
2023/01/25 02:54:18;;;;;;;;;55.50;42.50;;;;;5.99;60.85;102974.69;4940528;28;45382;-46
2023/01/25 02:56:44;;;;;;;;;59.75;44.75;;;;;6.00;60.78;102971.28;4940415;28;45401;-48
2023/01/25 02:59:12;;;;;;;;;58.25;46.25;;;;;5.93;60.60;102955.28;4939947;28;45498;-50
2023/01/25 03:01:38;;;;;;;;;62.75;48.50;;;;;6.01;60.69;102966.94;4922658;28;46274;-48
2023/01/25 03:04:04;;;;;;;;;62.00;48.00;;;;;6.00;60.60;102970.41;4939764;28;45466;-47
2023/01/25 03:06:31;;;;;;;;;59.75;46.25;;;;;6.00;60.70;102968.66;4940083;28;45263;-48
2023/01/25 03:08:57;;;;;;;;;62.25;46.75;;;;;5.97;60.78;102960.66;4939847;28;45602;-47
2023/01/25 03:11:22;;;;;;;;;51.00;43.50;;;;;5.99;60.91;102960.78;4939884;28;45546;-46
2023/01/25 03:13:48;;;;;;;;;62.25;47.00;;;;;5.98;60.69;102966.78;4940349;28;45271;-47
2023/01/25 03:16:14;;;;;;;;;61.25;46.75;;;;;5.99;60.71;102963.38;4940088;28;45957;-45
2023/01/25 03:18:40;;;;;;;;;61.25;46.75;;;;;5.99;60.71;102966.00;4939958;28;45782;-45
2023/01/25 03:21:16;;;;;;;;;54.75;43.25;;;;;5.98;60.67;102969.41;4939375;28;46222;-46
2023/01/25 03:23:43;;;;;;;;;63.00;45.50;;;;;5.96;60.78;102971.03;4939725;28;45530;-45
2023/01/25 03:26:12;;;;;;;;;58.25;47.00;;;;;5.96;60.77;102968.44;4939458;28;46391;-45
2023/01/25 03:28:39;;;;;;;;;59.50;43.75;;;;;5.95;60.80;102966.63;4939766;28;45256;-45
2023/01/25 03:31:06;;;;;;;;;62.75;46.25;;;;;5.94;60.71;102960.53;4938113;28;46714;-46
2023/01/25 03:33:32;;;;;;;;;58.75;46.00;;;;;5.93;60.84;102963.97;4939541;28;45602;-47
2023/01/25 03:35:58;;;;;;;;;64.75;46.75;;;;;5.92;60.57;102967.41;4939579;28;45421;-45
2023/01/25 03:38:24;;;;;;;;;57.75;44.25;;;;;5.92;60.80;102958.69;4939625;28;45403;-46
2023/01/25 03:40:50;;;;;;;;;59.00;43.50;;;;;5.92;60.91;102963.91;4939943;28;45483;-45
2023/01/25 03:43:15;;;;;;;;;59.00;44.00;;;;;5.92;60.93;102964.81;4939113;28;45473;-46
2023/01/25 03:45:40;;;;;;;;;57.25;44.25;;;;;5.89;60.92;102953.34;4939658;28;45236;-47
2023/01/25 03:48:06;;;;;;;;;57.50;43.75;;;;;5.84;60.96;102950.56;4939248;28;45237;-45
2023/01/25 03:50:32;;;;;;;;;65.75;48.75;;;;;5.85;60.88;102950.63;4939563;28;46380;-49
2023/01/25 03:53:05;;;;;;;;;55.75;43.50;;;;;5.84;60.94;102964.50;4921677;28;45276;-45
2023/01/25 03:55:31;;;;;;;;;60.75;47.00;;;;;5.83;60.95;102957.47;4922199;28;45403;-46
2023/01/25 03:57:56;;;;;;;;;54.25;42.50;;;;;5.82;60.71;102958.34;4937786;28;45387;-44
2023/01/25 04:00:22;;;;;;;;;61.50;45.50;;;;;5.80;60.83;102951.28;4939534;28;45358;-45
2023/01/25 04:02:47;;;;;;;;;58.00;46.00;;;;;5.80;60.97;102944.31;4939863;28;45535;-46
2023/01/25 04:05:13;;;;;;;;;59.25;42.25;;;;;5.79;60.97;102947.75;4939211;28;45490;-45
2023/01/25 04:07:38;;;;;;;;;54.25;41.75;;;;;5.77;60.81;102946.78;4939280;28;45490;-46
2023/01/25 04:10:05;;;;;;;;;61.75;44.50;;;;;5.77;60.89;102945.91;4938866;28;46322;-48
2023/01/25 04:12:30;;;;;;;;;54.25;41.00;;;;;5.77;61.10;102944.19;4938640;28;46363;-45
2023/01/25 04:14:56;;;;;;;;;56.50;39.25;;;;;5.73;61.13;102937.06;4939213;28;45766;-45
2023/01/25 04:17:21;;;;;;;;;47.00;40.50;;;;;5.76;60.96;102952.88;4939015;28;45667;-46
2023/01/25 04:19:47;;;;;;;;;59.50;43.50;;;;;5.75;61.24;102947.56;4939785;28;46323;-45
2023/01/25 04:22:12;;;;;;;;;56.25;44.00;;;;;5.74;61.14;102953.63;4938750;28;45401;-46
2023/01/25 04:24:38;;;;;;;;;55.25;41.25;;;;;5.72;61.21;102947.44;4939354;28;45376;-45
2023/01/25 04:27:04;;;;;;;;;50.00;39.50;;;;;5.68;61.24;102944.69;4938333;28;45563;-47
2023/01/25 04:29:29;;;;;;;;;57.50;45.75;;;;;5.70;61.14;102955.22;4938911;28;45509;-49
2023/01/25 04:31:55;;;;;;;;;59.50;42.00;;;;;5.69;61.08;102950.81;4937569;28;45267;-47
2023/01/25 04:34:20;;;;;;;;;45.00;39.00;;;;;5.66;61.07;102948.06;4922058;28;45437;-46
2023/01/25 04:36:45;;;;;;;;;53.75;40.50;;;;;5.69;61.18;102949.09;4921888;28;45414;-48
2023/01/25 04:39:11;;;;;;;;;48.50;40.75;;;;;5.69;61.24;102949.09;4939008;28;45395;-46
2023/01/25 04:41:36;;;;;;;;;54.75;42.75;;;;;5.69;61.14;102945.59;4940907;28;45406;-48
2023/01/25 04:44:01;;;;;;;;;55.00;42.75;;;;;5.69;61.17;102956.91;4940673;28;45827;-47
2023/01/25 04:46:27;;;;;;;;;53.75;41.50;;;;;5.67;61.05;102950.78;4942214;28;45391;-47
2023/01/25 04:48:52;;;;;;;;;55.25;41.00;;;;;5.69;61.12;102958.66;4942220;28;45952;-46
2023/01/25 04:51:17;;;;;;;;;57.25;45.25;;;;;5.68;61.18;102957.75;4942248;28;45360;-45
2023/01/25 04:53:43;;;;;;;;;51.75;41.25;;;;;5.69;61.28;102954.31;4942385;28;45221;-46
2023/01/25 04:56:09;;;;;;;;;59.00;46.75;;;;;5.70;61.24;102942.19;4941860;28;45237;-46
2023/01/25 04:58:34;;;;;;;;;60.00;48.00;;;;;5.70;61.30;102944.78;4942415;28;46218;-46
2023/01/25 05:01:01;;;;;;;;;53.50;42.25;;;;;5.67;61.22;102931.59;4942072;28;45289;-46
2023/01/25 05:03:27;;;;;;;;;56.25;42.75;;;;;5.70;61.42;102944.78;4942502;28;45355;-48
2023/01/25 05:05:52;;;;;;;;;57.00;40.25;;;;;5.70;61.41;102942.19;4941924;28;45276;-45
2023/01/25 05:08:18;;;;;;;;;57.00;44.75;;;;;5.70;61.57;102939.56;4930463;28;47250;-49
2023/01/25 05:10:44;;;;;;;;;60.75;42.25;;;;;5.70;61.25;102936.97;4941926;28;45402;-46
2023/01/25 05:13:09;;;;;;;;;55.50;42.50;;;;;5.70;61.53;102942.19;4941769;28;45336;-45
2023/01/25 05:15:34;;;;;;;;;39.25;32.50;;;;;5.69;61.36;102941.25;4941918;28;45336;-50
2023/01/25 05:18:00;;;;;;;;;53.75;41.00;;;;;5.66;61.46;102935.03;4942002;28;46123;-48
2023/01/25 05:20:25;;;;;;;;;52.50;41.00;;;;;5.66;61.60;102933.31;4924517;28;45338;-46
2023/01/25 05:22:50;;;;;;;;;51.50;37.50;;;;;5.65;61.39;102928.06;4924929;28;45391;-44
2023/01/25 05:28:03;;;;;;;;;54.00;42.25;;;;;5.65;61.50;102934.16;4941539;28;45248;-45
2023/01/25 05:30:28;;;;;;;;;57.50;46.25;;;;;5.61;61.46;102923.50;4941948;28;45428;-48
2023/01/25 05:32:54;;;;;;;;;56.25;41.00;;;;;5.65;61.57;102928.06;4941958;28;45297;-46
2023/01/25 05:35:19;;;;;;;;;42.50;37.00;;;;;5.64;61.57;102927.16;4941844;28;45326;-45
2023/01/25 05:37:44;;;;;;;;;53.25;40.00;;;;;5.64;61.45;102926.28;4941707;28;45179;-46
2023/01/25 05:40:10;;;;;;;;;53.75;39.25;;;;;5.63;61.43;102933.19;4941800;28;45342;-46
2023/01/25 05:42:35;;;;;;;;;46.50;39.00;;;;;5.63;61.60;102927.09;4941399;28;45296;-47
2023/01/25 05:45:01;;;;;;;;;48.00;40.00;;;;;5.62;61.64;102927.91;4941703;28;45214;-45
2023/01/25 05:47:26;;;;;;;;;45.50;35.25;;;;;5.62;61.50;102922.69;4941630;28;45602;-47
2023/01/25 05:49:51;;;;;;;;;54.00;38.25;;;;;5.59;61.53;102919.97;4941722;28;45348;-46
2023/01/25 05:52:17;;;;;;;;;49.75;38.00;;;;;5.62;61.45;102928.81;4941672;28;45407;-46
2023/01/25 05:54:42;;;;;;;;;52.75;38.25;;;;;5.60;61.59;102924.38;4929657;28;45391;-48
2023/01/25 05:57:08;;;;;;;;;43.50;37.00;;;;;5.58;61.61;102924.28;4944629;28;45343;-48
2023/01/25 05:59:33;;;;;;;;;37.25;31.75;;;;;5.59;61.48;102919.97;4944862;28;45304;-48
2023/01/25 06:01:58;;;;;;;;;48.25;38.25;;;;;5.57;61.67;102924.22;4944963;28;45382;-47
2023/01/25 06:04:24;;;;;;;;;38.25;33.25;;;;;5.57;61.69;102930.31;4944819;28;45531;-46
2023/01/25 06:06:49;;;;;;;;;41.00;35.75;;;;;5.47;61.65;102913.44;4944580;28;46101;-47
2023/01/25 06:09:14;;;;;;;;;48.25;36.00;;;;;5.55;61.70;102932.00;4944569;28;45338;-49
2023/01/25 06:11:43;;;;;;;;;38.00;31.00;;;;;5.55;61.72;102918.94;4944362;28;45361;-49
2023/01/25 06:14:09;;;;;;;;;39.50;34.50;;;;;5.55;61.79;102926.78;4944666;28;45238;-47
2023/01/25 06:16:34;;;;;;;;;54.25;40.00;;;;;5.54;61.66;102925.88;4944522;28;46141;-47
2023/01/25 06:19:00;;;;;;;;;34.00;30.25;;;;;5.52;61.79;102922.31;4944398;28;45208;-48
2023/01/25 06:21:25;;;;;;;;;40.00;29.25;;;;;5.54;61.65;102920.66;4944864;28;45294;-46
2023/01/25 06:23:50;;;;;;;;;39.75;31.00;;;;;5.53;61.79;102923.19;4944555;28;45454;-46
2023/01/25 06:26:16;;;;;;;;;35.25;30.75;;;;;5.51;61.94;102922.28;4944201;28;45399;-48
2023/01/25 06:28:41;;;;;;;;;26.75;25.25;;;;;5.49;61.83;102922.19;4944301;28;45354;-49
2023/01/25 06:31:14;;;;;;;;;39.25;25.75;;;;;5.50;61.90;102928.31;4927258;28;45340;-46
2023/01/25 06:33:41;;;;;;;;;26.50;24.00;;;;;5.47;61.62;102923.84;4944419;28;45148;-46
2023/01/25 06:36:11;;;;;;;;;30.00;25.00;;;;;5.46;62.00;102922.06;4943768;28;46365;-47
2023/01/25 06:38:37;;;;;;;;;32.25;28.00;;;;;5.46;61.74;102918.56;4944311;28;45379;-45
2023/01/25 06:41:04;;;;;;;;;37.50;29.75;;;;;5.45;61.57;102917.66;4944192;28;45163;-53
2023/01/25 06:43:33;;;;;;;;;24.50;23.00;;;;;5.36;61.83;102904.25;4944242;28;45410;-46
2023/01/25 06:46:07;;;;;;;;;27.50;23.75;;;;;5.43;61.53;102911.50;4944218;28;45436;-46
2023/01/25 06:48:33;;;;;;;;;22.50;18.75;;;;;5.44;61.79;102910.66;4944323;28;45365;-49
2023/01/25 06:51:01;;;;;;;;;32.00;26.25;;;;;5.43;61.93;102916.72;4944119;28;45344;-49
2023/01/25 06:53:28;;;;;;;;;23.00;19.25;;;;;5.42;61.90;102916.66;4944226;28;45586;-48
2023/01/25 06:55:57;;;;;;;;;25.50;20.50;;;;;5.39;61.78;102909.59;4943786;28;45499;-47
2023/01/25 06:58:22;;;;;;;;;19.75;19.25;;;;;5.40;61.55;102915.72;4944083;28;45347;-46
2023/01/25 07:00:47;;;;;;;;;22.75;16.50;;;;;5.39;61.71;102908.72;4944006;28;45327;-48
2023/01/25 07:03:13;;;;;;;;;20.00;18.25;;;;;5.37;61.74;102908.63;4926698;28;45259;-46
2023/01/25 07:05:38;;;;;;;;;18.75;13.75;;;;;5.37;61.75;102913.84;4943637;28;45513;-46
2023/01/25 07:08:04;;;;;;;;;24.50;20.50;;;;;5.36;61.60;102919.91;4943741;28;45228;-49
2023/01/25 07:10:29;;;;;;;;;13.00;12.25;;;;;5.35;61.84;102916.38;4943738;28;45361;-48
2023/01/25 07:12:54;;;;;;;;;48.00;36.25;;;;;5.35;61.66;102918.13;4943355;28;45283;-45
2023/01/25 07:15:20;;;;;;;;;15.25;15.25;;;;;5.34;61.79;102916.34;4943625;28;45940;-46
2023/01/25 07:17:45;;;;;;;;;24.25;18.00;;;;;5.32;61.75;102913.66;4943873;28;45265;-46
2023/01/25 07:20:11;;;;;;;;;16.75;14.75;;;;;5.32;61.72;102917.97;4943737;28;45531;-46
2023/01/25 07:22:36;;;;;;;;;16.75;16.75;;;;;5.32;61.74;102917.97;4943978;28;45543;-46
2023/01/25 07:25:02;;;;;;;;;19.75;17.25;;;;;5.30;61.78;102920.53;4926160;28;46100;-50
2023/01/25 07:27:27;;;;;;;;;23.25;18.75;;;;;5.29;61.65;102917.84;4925849;28;45240;-46
2023/01/25 07:29:52;;;;;;;;;23.00;19.00;;;;;5.28;61.46;102913.47;4943632;28;45132;-47
2023/01/25 07:32:18;;;;;;;;;15.75;12.50;;;;;5.28;61.52;102911.75;4943486;28;45235;-49
2023/01/25 07:34:43;;;;;;;;;15.50;15.00;;;;;5.27;61.50;102911.69;4943394;28;46012;-48
2023/01/25 07:37:09;;;;;;;;;15.25;9.00;;;;;5.27;61.60;102916.88;4943733;28;45310;-49
2023/01/25 07:39:35;;;;;;;;;21.25;14.50;;;;;5.27;61.58;102911.69;4938122;28;45240;-46
2023/01/25 07:42:00;;;;;;;;;18.75;16.00;;;;;5.27;61.38;102912.59;4924729;28;46387;-47
2023/01/25 07:44:26;;;;;;;;;15.75;15.75;;;;;5.29;61.47;102902.22;4942059;28;46052;-46
2023/01/25 07:46:53;;;;;;;;;24.00;17.50;;;;;5.28;61.61;102908.25;4940274;28;45726;-48
2023/01/25 07:49:19;;;;;;;;;23.25;17.25;;;;;5.27;61.70;102912.59;4937204;28;45462;-47
2023/01/25 07:51:44;;;;;;;;;20.50;17.00;;;;;5.25;61.53;102903.78;4937912;28;45569;-50
2023/01/25 07:54:10;;;;;;;;;13.50;12.25;;;;;5.25;61.43;102903.78;4920664;28;45984;-50
2023/01/25 07:56:39;;;;;;;;;20.75;18.25;;;;;5.26;61.31;102900.38;4938500;28;45471;-47
2023/01/25 07:59:07;;;;;;;;;17.50;14.75;;;;;5.27;61.63;102906.47;4939227;28;45879;-47
2023/01/25 08:01:33;;;;;;;;;17.50;13.50;;;;;5.27;61.38;102911.69;4939223;28;45585;-46
2023/01/25 08:03:59;;;;;;;;;20.50;16.50;;;;;5.26;61.32;102904.66;4938609;28;45451;-46
2023/01/25 08:06:29;;;;;;;;;25.25;14.50;;;;;5.25;61.28;102908.13;4939130;28;45462;-53
2023/01/25 08:08:56;;;;;;;;;22.50;17.75;;;;;5.24;61.47;102906.34;4938821;28;45276;-47
2023/01/25 08:11:27;;;;;;;;;18.25;15.50;;;;;5.18;61.69;102905.25;4938712;28;45450;-46
2023/01/25 08:13:52;;;;;;;;;13.00;13.00;;;;;5.21;61.45;102915.81;4942341;28;45529;-48
2023/01/25 08:16:20;;;;;;;;;22.75;14.75;;;;;5.19;61.46;102912.25;4941240;28;45407;-47
2023/01/25 08:18:50;;;;;;;;;20.50;18.00;;;;;5.19;61.36;102911.34;4905866;28;45525;-49
2023/01/25 08:21:15;;;;;;;;;21.75;17.50;;;;;5.18;61.28;102905.25;4937810;28;45927;-46
2023/01/25 08:23:41;;;;;;;;;19.25;16.00;;;;;5.18;61.55;102909.56;4939221;28;45474;-47
2023/01/25 08:26:09;;;;;;;;;25.50;21.75;;;;;5.16;61.21;102906.03;4938478;28;45487;-48
2023/01/25 08:28:37;;;;;;;;;18.00;17.00;;;;;5.13;61.45;102906.78;4939132;28;45547;-45
2023/01/25 08:31:20;;;;;;;;;23.25;19.00;;;;;5.15;61.41;102906.84;4938851;28;46302;-47
2023/01/25 08:33:46;;;;;;;;;27.25;21.75;;;;;5.15;61.40;102905.13;4936129;28;46161;-46
2023/01/25 08:36:13;;;;;;;;;20.25;16.00;;;;;5.13;61.38;102906.78;4939187;28;45502;-50
2023/01/25 08:38:39;;;;;;;;;26.75;24.75;;;;;5.13;61.21;102904.19;4939239;28;45339;-50
2023/01/25 08:41:17;;;;;;;;;23.50;19.25;;;;;5.13;61.66;102905.88;4938362;28;45429;-50
2023/01/25 08:43:43;;;;;;;;;24.25;22.75;;;;;5.14;61.54;102907.66;4939204;28;46268;-49
2023/01/25 08:46:09;;;;;;;;;23.50;19.25;;;;;5.12;61.28;102901.47;4938875;28;45477;-50
2023/01/25 08:48:35;;;;;;;;;24.00;20.50;;;;;5.11;61.25;102905.81;4938829;28;45493;-48
2023/01/25 08:51:01;;;;;;;;;24.50;23.25;;;;;5.12;61.14;102904.09;4938419;28;45312;-46
2023/01/25 08:53:31;;;;;;;;;29.25;18.75;;;;;5.11;61.64;102900.59;4938552;28;45436;-48
2023/01/25 08:56:03;;;;;;;;;31.25;21.75;;;;;5.10;61.55;102898.81;4937940;28;45625;-47
2023/01/25 08:58:30;;;;;;;;;28.50;22.75;;;;;5.08;61.44;102892.66;4931316;28;45920;-45
2023/01/25 09:01:01;;;;;;;;;26.25;24.00;;;;;5.07;61.42;102890.88;4937436;28;45288;-46
2023/01/25 09:03:26;;;;;;;;;25.00;22.50;;;;;5.06;61.24;102883.88;4940828;28;45884;-46
2023/01/25 09:05:52;;;;;;;;;28.50;25.50;;;;;5.05;61.23;102879.50;4936590;28;45384;-46
2023/01/25 09:08:18;;;;;;;;;31.75;23.50;;;;;5.03;61.32;102888.94;4924145;28;45271;-52
2023/01/25 09:10:43;;;;;;;;;27.75;23.25;;;;;5.04;61.59;102890.72;4938309;28;45401;-49
2023/01/25 09:13:08;;;;;;;;;29.75;26.00;;;;;5.02;61.51;102881.97;4917339;28;46369;-49
2023/01/25 09:15:34;;;;;;;;;28.50;23.50;;;;;4.99;61.43;102882.75;4917927;28;45477;-55
2023/01/25 09:17:59;;;;;;;;;22.50;20.00;;;;;5.03;61.34;102883.72;4918713;28;45593;-50
2023/01/25 09:20:24;;;;;;;;;23.50;21.75;;;;;5.03;61.53;102884.63;4919060;28;45553;-51
2023/01/25 09:22:50;;;;;;;;;19.00;18.25;;;;;5.04;61.56;102891.63;4918484;28;46048;-48
2023/01/25 09:25:15;;;;;;;;;24.00;21.75;;;;;5.00;61.47;102884.50;4919100;28;45547;-52
2023/01/25 09:27:41;;;;;;;;;32.00;23.25;;;;;5.05;61.35;102892.50;4919043;28;45778;-50
2023/01/25 09:30:08;;;;;;;;;25.75;20.75;;;;;5.05;61.59;102889.91;4918557;28;45966;-51
2023/01/25 09:32:33;;;;;;;;;22.25;19.00;;;;;5.04;61.55;102876.00;4919007;28;47485;-47
2023/01/25 09:34:59;;;;;;;;;27.25;23.25;;;;;5.06;61.46;102878.66;4918577;28;45434;-50
2023/01/25 09:37:24;;;;;;;;;26.75;25.50;;;;;5.08;61.32;102886.53;4918858;28;45211;-52
2023/01/25 09:39:49;;;;;;;;;27.75;24.25;;;;;5.08;61.40;102884.84;4917284;28;45480;-46
2023/01/25 09:42:21;;;;;;;;;24.75;23.25;;;;;5.08;61.46;102881.34;4919297;28;45462;-50
2023/01/25 09:45:11;;;;;;;;;39.25;30.75;;;;;5.08;61.26;102882.25;4921819;28;45510;-47
2023/01/25 09:47:51;;;;;;;;;25.00;24.50;;;;;5.10;61.27;102883.19;4921944;28;45189;-49
2023/01/25 09:50:33;;;;;;;;;28.75;25.25;;;;;5.11;61.05;102884.97;4921975;28;45387;-47
2023/01/25 09:53:18;;;;;;;;;18.25;16.75;;;;;5.11;61.37;102879.75;4921653;28;46524;-47
2023/01/25 09:55:49;;;;;;;;;32.75;29.50;;;;;5.11;61.52;102878.88;4921651;28;45334;-47
2023/01/25 09:58:20;;;;;;;;;32.75;25.50;;;;;5.11;61.39;102881.47;4917839;28;45244;-49
2023/01/25 10:00:51;;;;;;;;;37.75;26.00;;;;;5.12;61.41;102883.25;4913949;28;45539;-50
2023/01/25 10:03:26;;;;;;;;;31.00;26.00;;;;;5.12;61.65;102884.16;4921743;28;45344;-46
2023/01/25 10:05:56;;;;;;;;;30.00;28.50;;;;;5.12;61.40;102889.34;4917276;28;45233;-49
2023/01/25 10:08:34;;;;;;;;;36.50;33.00;;;;;5.14;61.64;102890.28;4921492;28;45233;-47
2023/01/25 10:11:23;;;;;;;;;33.25;27.25;;;;;5.14;61.57;102890.28;4921148;28;45504;-47
2023/01/25 10:13:49;;;;;;;;;37.25;29.75;;;;;5.14;61.56;102892.91;4936204;28;45994;-50
2023/01/25 10:16:32;;;;;;;;;42.50;34.25;;;;;5.14;61.43;102892.03;4921413;28;45385;-49
2023/01/25 10:19:00;;;;;;;;;31.75;30.00;;;;;5.13;61.60;102891.16;4921617;28;45518;-48
2023/01/25 10:21:32;;;;;;;;;32.75;29.75;;;;;5.11;61.62;102890.19;4920506;28;45399;-50
2023/01/25 10:24:25;;;;;;;;;40.50;30.75;;;;;5.12;61.49;102896.25;4921427;28;45367;-47
2023/01/25 10:26:56;;;;;;;;;36.00;29.50;;;;;5.07;61.46;102887.38;4921136;28;45181;-49
2023/01/25 10:29:27;;;;;;;;;37.75;32.75;;;;;5.04;61.57;102882.91;4910073;28;45173;-50
2023/01/25 10:31:57;;;;;;;;;43.25;32.50;;;;;5.05;61.60;102882.97;4921345;28;45413;-50
2023/01/25 10:34:33;;;;;;;;;38.50;31.00;;;;;5.06;61.59;102876.06;4921317;28;45398;-53
2023/01/25 10:37:09;;;;;;;;;39.50;30.25;;;;;5.03;61.19;102876.81;4921322;28;45386;-51
2023/01/25 10:39:41;;;;;;;;;38.00;25.50;;;;;5.05;61.35;102879.50;4921594;28;45398;-50
2023/01/25 10:42:12;;;;;;;;;38.00;30.00;;;;;5.02;61.29;102875.03;4923816;28;45367;-53
2023/01/25 10:44:38;;;;;;;;;33.25;30.50;;;;;5.05;61.33;102880.38;4924488;28;45372;-50
2023/01/25 10:47:14;;;;;;;;;33.00;25.00;;;;;5.06;61.20;102878.66;4924552;28;45421;-52
2023/01/25 10:50:06;;;;;;;;;38.00;30.75;;;;;5.04;61.40;102880.31;4924726;28;45464;-52
2023/01/25 10:52:34;;;;;;;;;47.50;37.00;;;;;5.02;61.43;102876.75;4923202;28;45655;-52
2023/01/25 10:55:17;;;;;;;;;34.25;30.75;;;;;5.04;61.21;102875.09;4924222;28;46270;-52
2023/01/25 10:57:52;;;;;;;;;40.75;34.25;;;;;5.01;61.34;102867.16;4924079;28;45407;-52
2023/01/25 11:00:26;;;;;;;;;33.25;28.50;;;;;5.03;61.56;102863.78;4912777;28;45518;-52
2023/01/25 11:02:53;;;;;;;;;37.50;33.75;;;;;5.01;61.57;102864.56;4924309;28;45368;-51
2023/01/25 11:05:49;;;;;;;;;41.75;33.00;;;;;5.01;61.33;102860.22;4923991;28;45606;-47
2023/01/25 11:08:24;;;;;;;;;47.25;37.50;;;;;4.99;61.59;102856.69;4923931;28;45462;-48
2023/01/25 11:10:51;;;;;;;;;37.50;34.00;;;;;5.00;61.61;102855.81;4924120;28;45374;-50
2023/01/25 11:13:28;;;;;;;;;44.75;36.50;;;;;4.99;61.43;102845.34;4934383;28;45361;-48
2023/01/25 11:16:13;;;;;;;;;34.75;33.75;;;;;4.97;61.45;102853.09;4943195;28;46220;-51
2023/01/25 11:18:49;;;;;;;;;35.75;29.75;;;;;4.97;61.65;102841.78;4943445;28;45317;-53
2023/01/25 11:21:24;;;;;;;;;40.00;29.00;;;;;4.94;61.44;102837.31;4931190;28;45285;-53
2023/01/25 11:24:01;;;;;;;;;43.25;35.25;;;;;4.96;61.13;102834.81;4943164;28;45346;-47
2023/01/25 11:26:27;;;;;;;;;34.75;29.75;;;;;4.94;61.36;102834.72;4942766;28;46357;-48